sensor_id;sensor_type;location;lat;lon;timestamp;P1;durP1;ratioP1;P2;durP2;ratioP2
21546;SDS011;41275;51.912;4.388;2022-10-18T00:00:28;15.70;;;7.18;;
21546;SDS011;41275;51.912;4.388;2022-10-18T00:05:50;16.15;;;7.68;;
21546;SDS011;41275;51.912;4.388;2022-10-18T00:11:11;15.18;;;7.82;;
21546;SDS011;41275;51.912;4.388;2022-10-18T00:16:33;13.20;;;7.20;;
21546;SDS011;41275;51.912;4.388;2022-10-18T00:21:54;12.63;;;7.53;;
21546;SDS011;41275;51.912;4.388;2022-10-18T00:27:15;17.43;;;7.73;;
21546;SDS011;41275;51.912;4.388;2022-10-18T00:32:37;14.70;;;7.38;;
21546;SDS011;41275;51.912;4.388;2022-10-18T00:37:59;15.82;;;7.28;;
21546;SDS011;41275;51.912;4.388;2022-10-18T00:43:20;14.23;;;8.10;;
21546;SDS011;41275;51.912;4.388;2022-10-18T00:48:41;12.45;;;7.00;;
21546;SDS011;41275;51.912;4.388;2022-10-18T00:54:03;12.88;;;6.85;;
21546;SDS011;41275;51.912;4.388;2022-10-18T00:59:24;13.90;;;7.60;;
21546;SDS011;41275;51.912;4.388;2022-10-18T01:04:46;16.23;;;7.30;;
21546;SDS011;41275;51.912;4.388;2022-10-18T01:10:19;13.77;;;7.43;;
21546;SDS011;41275;51.912;4.388;2022-10-18T01:16:19;17.40;;;7.35;;
21546;SDS011;41275;51.912;4.388;2022-10-18T01:22:01;13.68;;;7.40;;
21546;SDS011;41275;51.912;4.388;2022-10-18T01:38:54;12.43;;;7.20;;
21546;SDS011;41275;51.912;4.388;2022-10-18T01:44:20;13.00;;;7.25;;
21546;SDS011;41275;51.912;4.388;2022-10-18T01:49:44;14.33;;;7.73;;
21546;SDS011;41275;51.912;4.388;2022-10-18T01:55:05;14.63;;;7.55;;
21546;SDS011;41275;51.912;4.388;2022-10-18T02:00:37;13.68;;;7.75;;
21546;SDS011;41275;51.912;4.388;2022-10-18T02:06:15;12.65;;;7.50;;
21546;SDS011;41275;51.912;4.388;2022-10-18T02:11:41;12.88;;;7.47;;
21546;SDS011;41275;51.912;4.388;2022-10-18T02:17:05;17.17;;;7.93;;
21546;SDS011;41275;51.912;4.388;2022-10-18T02:22:29;12.63;;;7.20;;
21546;SDS011;41275;51.912;4.388;2022-10-18T02:27:53;14.65;;;7.53;;
21546;SDS011;41275;51.912;4.388;2022-10-18T02:33:31;17.00;;;7.77;;
21546;SDS011;41275;51.912;4.388;2022-10-18T02:39:00;16.98;;;7.85;;
21546;SDS011;41275;51.912;4.388;2022-10-18T02:44:27;17.45;;;7.60;;
21546;SDS011;41275;51.912;4.388;2022-10-18T02:49:48;13.93;;;7.47;;
21546;SDS011;41275;51.912;4.388;2022-10-18T02:55:09;13.70;;;7.70;;
21546;SDS011;41275;51.912;4.388;2022-10-18T03:00:30;16.52;;;7.13;;
21546;SDS011;41275;51.912;4.388;2022-10-18T03:05:51;13.00;;;6.85;;
21546;SDS011;41275;51.912;4.388;2022-10-18T03:11:13;16.00;;;7.33;;
21546;SDS011;41275;51.912;4.388;2022-10-18T03:16:34;15.02;;;6.85;;
21546;SDS011;41275;51.912;4.388;2022-10-18T03:21:55;13.93;;;6.70;;
21546;SDS011;41275;51.912;4.388;2022-10-18T03:27:16;13.68;;;6.47;;
21546;SDS011;41275;51.912;4.388;2022-10-18T03:32:38;17.27;;;6.70;;
21546;SDS011;41275;51.912;4.388;2022-10-18T03:38:00;11.27;;;6.23;;
21546;SDS011;41275;51.912;4.388;2022-10-18T03:43:21;14.00;;;6.20;;
21546;SDS011;41275;51.912;4.388;2022-10-18T03:48:42;11.98;;;6.13;;
21546;SDS011;41275;51.912;4.388;2022-10-18T03:54:04;14.73;;;6.20;;
21546;SDS011;41275;51.912;4.388;2022-10-18T03:59:25;13.87;;;6.23;;
21546;SDS011;41275;51.912;4.388;2022-10-18T04:04:46;14.45;;;5.85;;
21546;SDS011;41275;51.912;4.388;2022-10-18T04:10:07;16.33;;;6.07;;
21546;SDS011;41275;51.912;4.388;2022-10-18T04:15:29;13.27;;;6.40;;
21546;SDS011;41275;51.912;4.388;2022-10-18T04:20:50;14.70;;;5.57;;
21546;SDS011;41275;51.912;4.388;2022-10-18T04:26:11;12.45;;;5.28;;
21546;SDS011;41275;51.912;4.388;2022-10-18T04:31:32;12.00;;;5.30;;
21546;SDS011;41275;51.912;4.388;2022-10-18T04:36:53;11.45;;;5.30;;
21546;SDS011;41275;51.912;4.388;2022-10-18T04:42:15;17.27;;;8.80;;
21546;SDS011;41275;51.912;4.388;2022-10-18T04:47:36;13.67;;;4.20;;
21546;SDS011;41275;51.912;4.388;2022-10-18T04:52:57;13.88;;;4.85;;
21546;SDS011;41275;51.912;4.388;2022-10-18T04:58:18;14.48;;;4.40;;
21546;SDS011;41275;51.912;4.388;2022-10-18T05:03:40;10.80;;;3.90;;
21546;SDS011;41275;51.912;4.388;2022-10-18T05:09:01;11.40;;;3.92;;
21546;SDS011;41275;51.912;4.388;2022-10-18T05:14:22;10.73;;;3.83;;
21546;SDS011;41275;51.912;4.388;2022-10-18T05:19:43;11.33;;;3.70;;
21546;SDS011;41275;51.912;4.388;2022-10-18T05:25:05;12.95;;;4.18;;
21546;SDS011;41275;51.912;4.388;2022-10-18T05:30:26;12.35;;;3.58;;
21546;SDS011;41275;51.912;4.388;2022-10-18T05:35:47;14.45;;;3.97;;
21546;SDS011;41275;51.912;4.388;2022-10-18T05:41:09;13.90;;;4.23;;
21546;SDS011;41275;51.912;4.388;2022-10-18T05:46:31;12.02;;;4.25;;
21546;SDS011;41275;51.912;4.388;2022-10-18T05:51:52;13.15;;;4.60;;
21546;SDS011;41275;51.912;4.388;2022-10-18T05:57:14;13.52;;;5.10;;
21546;SDS011;41275;51.912;4.388;2022-10-18T06:02:36;12.83;;;4.70;;
21546;SDS011;41275;51.912;4.388;2022-10-18T06:07:57;12.10;;;4.78;;
21546;SDS011;41275;51.912;4.388;2022-10-18T06:13:18;15.68;;;5.32;;
21546;SDS011;41275;51.912;4.388;2022-10-18T06:18:40;12.27;;;5.07;;
21546;SDS011;41275;51.912;4.388;2022-10-18T06:24:01;14.52;;;5.78;;
21546;SDS011;41275;51.912;4.388;2022-10-18T06:29:23;13.80;;;5.75;;
21546;SDS011;41275;51.912;4.388;2022-10-18T06:34:44;17.93;;;6.13;;
21546;SDS011;41275;51.912;4.388;2022-10-18T06:40:05;20.95;;;8.60;;
21546;SDS011;41275;51.912;4.388;2022-10-18T06:45:27;16.95;;;5.78;;
21546;SDS011;41275;51.912;4.388;2022-10-18T06:50:55;15.93;;;5.40;;
21546;SDS011;41275;51.912;4.388;2022-10-18T06:56:18;13.10;;;5.43;;
21546;SDS011;41275;51.912;4.388;2022-10-18T07:01:39;13.87;;;5.60;;
21546;SDS011;41275;51.912;4.388;2022-10-18T07:07:01;14.02;;;4.95;;
21546;SDS011;41275;51.912;4.388;2022-10-18T07:12:22;14.60;;;5.28;;
21546;SDS011;41275;51.912;4.388;2022-10-18T07:17:43;13.48;;;5.28;;
21546;SDS011;41275;51.912;4.388;2022-10-18T07:23:07;13.80;;;5.28;;
21546;SDS011;41275;51.912;4.388;2022-10-18T07:28:29;14.57;;;5.20;;
21546;SDS011;41275;51.912;4.388;2022-10-18T07:33:50;13.73;;;4.88;;
21546;SDS011;41275;51.912;4.388;2022-10-18T07:39:12;16.05;;;4.88;;
21546;SDS011;41275;51.912;4.388;2022-10-18T07:44:33;10.77;;;3.88;;
21546;SDS011;41275;51.912;4.388;2022-10-18T07:49:54;13.50;;;4.03;;
21546;SDS011;41275;51.912;4.388;2022-10-18T07:55:16;9.50;;;3.05;;
21546;SDS011;41275;51.912;4.388;2022-10-18T08:00:37;12.20;;;4.20;;
21546;SDS011;41275;51.912;4.388;2022-10-18T08:05:59;8.20;;;2.50;;
21546;SDS011;41275;51.912;4.388;2022-10-18T08:11:22;12.00;;;2.40;;
21546;SDS011;41275;51.912;4.388;2022-10-18T08:16:44;11.32;;;2.90;;
21546;SDS011;41275;51.912;4.388;2022-10-18T08:22:05;11.40;;;2.23;;
21546;SDS011;41275;51.912;4.388;2022-10-18T08:27:26;6.95;;;1.90;;
21546;SDS011;41275;51.912;4.388;2022-10-18T08:32:48;10.60;;;2.00;;
21546;SDS011;41275;51.912;4.388;2022-10-18T08:38:09;8.05;;;1.70;;
21546;SDS011;41275;51.912;4.388;2022-10-18T08:43:39;7.78;;;1.48;;
21546;SDS011;41275;51.912;4.388;2022-10-18T08:49:09;5.60;;;1.50;;
21546;SDS011;41275;51.912;4.388;2022-10-18T08:54:38;6.05;;;1.50;;
21546;SDS011;41275;51.912;4.388;2022-10-18T09:00:13;12.43;;;2.30;;
21546;SDS011;41275;51.912;4.388;2022-10-18T09:05:52;6.77;;;1.53;;
21546;SDS011;41275;51.912;4.388;2022-10-18T09:28:14;9.98;;;1.25;;
21546;SDS011;41275;51.912;4.388;2022-10-18T09:34:04;8.15;;;1.10;;
21546;SDS011;41275;51.912;4.388;2022-10-18T09:39:32;6.00;;;1.33;;
21546;SDS011;41275;51.912;4.388;2022-10-18T09:44:58;8.48;;;1.20;;
21546;SDS011;41275;51.912;4.388;2022-10-18T09:50:24;6.67;;;1.10;;
21546;SDS011;41275;51.912;4.388;2022-10-18T10:01:35;9.00;;;1.17;;
21546;SDS011;41275;51.912;4.388;2022-10-18T10:06:58;4.50;;;0.90;;
21546;SDS011;41275;51.912;4.388;2022-10-18T10:12:29;6.43;;;1.15;;
21546;SDS011;41275;51.912;4.388;2022-10-18T10:17:53;6.78;;;1.00;;
21546;SDS011;41275;51.912;4.388;2022-10-18T10:23:36;7.43;;;1.17;;
21546;SDS011;41275;51.912;4.388;2022-10-18T10:29:38;5.00;;;1.00;;
21546;SDS011;41275;51.912;4.388;2022-10-18T10:35:20;5.60;;;1.02;;
21546;SDS011;41275;51.912;4.388;2022-10-18T10:40:47;6.85;;;1.25;;
21546;SDS011;41275;51.912;4.388;2022-10-18T10:46:13;6.85;;;1.13;;
21546;SDS011;41275;51.912;4.388;2022-10-18T10:51:36;4.43;;;1.13;;
21546;SDS011;41275;51.912;4.388;2022-10-18T10:57:42;6.57;;;1.20;;
21546;SDS011;41275;51.912;4.388;2022-10-18T11:02:45;7.90;;;1.00;;
21546;SDS011;41275;51.912;4.388;2022-10-18T11:08:07;7.63;;;1.13;;
21546;SDS011;41275;51.912;4.388;2022-10-18T11:19:10;3.92;;;1.00;;
21546;SDS011;41275;51.912;4.388;2022-10-18T11:24:45;4.70;;;0.93;;
21546;SDS011;41275;51.912;4.388;2022-10-18T11:36:23;4.28;;;1.00;;
21546;SDS011;41275;51.912;4.388;2022-10-18T11:42:08;6.47;;;1.10;;
21546;SDS011;41275;51.912;4.388;2022-10-18T11:47:48;5.90;;;0.87;;
21546;SDS011;41275;51.912;4.388;2022-10-18T11:53:42;5.60;;;1.20;;
21546;SDS011;41275;51.912;4.388;2022-10-18T12:04:38;6.13;;;1.35;;
21546;SDS011;41275;51.912;4.388;2022-10-18T12:10:23;4.10;;;0.87;;
21546;SDS011;41275;51.912;4.388;2022-10-18T12:15:44;3.63;;;0.90;;
21546;SDS011;41275;51.912;4.388;2022-10-18T12:21:09;4.97;;;0.70;;
21546;SDS011;41275;51.912;4.388;2022-10-18T12:26:34;6.35;;;1.08;;
21546;SDS011;41275;51.912;4.388;2022-10-18T12:32:18;4.90;;;0.95;;
21546;SDS011;41275;51.912;4.388;2022-10-18T12:37:50;5.13;;;0.93;;
21546;SDS011;41275;51.912;4.388;2022-10-18T12:43:26;5.37;;;0.97;;
21546;SDS011;41275;51.912;4.388;2022-10-18T12:49:01;4.35;;;0.70;;
21546;SDS011;41275;51.912;4.388;2022-10-18T12:59:41;2.83;;;0.70;;
21546;SDS011;41275;51.912;4.388;2022-10-18T13:05:55;3.78;;;0.68;;
21546;SDS011;41275;51.912;4.388;2022-10-18T13:22:18;3.95;;;0.60;;
21546;SDS011;41275;51.912;4.388;2022-10-18T13:28:04;2.75;;;0.60;;
21546;SDS011;41275;51.912;4.388;2022-10-18T13:34:15;3.90;;;0.77;;
21546;SDS011;41275;51.912;4.388;2022-10-18T13:39:32;4.10;;;0.87;;
21546;SDS011;41275;51.912;4.388;2022-10-18T13:44:54;3.30;;;1.08;;
21546;SDS011;41275;51.912;4.388;2022-10-18T13:50:36;3.33;;;0.80;;
21546;SDS011;41275;51.912;4.388;2022-10-18T14:01:30;3.38;;;0.88;;
21546;SDS011;41275;51.912;4.388;2022-10-18T14:07:01;5.07;;;0.80;;
21546;SDS011;41275;51.912;4.388;2022-10-18T14:12:28;3.57;;;0.70;;
21546;SDS011;41275;51.912;4.388;2022-10-18T14:17:57;4.15;;;0.70;;
21546;SDS011;41275;51.912;4.388;2022-10-18T14:23:24;3.88;;;0.70;;
21546;SDS011;41275;51.912;4.388;2022-10-18T14:29:04;6.40;;;1.52;;
21546;SDS011;41275;51.912;4.388;2022-10-18T14:34:30;4.10;;;0.90;;
21546;SDS011;41275;51.912;4.388;2022-10-18T14:39:52;3.63;;;0.65;;
21546;SDS011;41275;51.912;4.388;2022-10-18T14:45:20;4.60;;;0.60;;
21546;SDS011;41275;51.912;4.388;2022-10-18T14:50:45;5.70;;;0.90;;
21546;SDS011;41275;51.912;4.388;2022-10-18T14:56:19;4.63;;;0.95;;
21546;SDS011;41275;51.912;4.388;2022-10-18T15:01:50;5.93;;;0.82;;
21546;SDS011;41275;51.912;4.388;2022-10-18T15:07:15;3.05;;;0.75;;
21546;SDS011;41275;51.912;4.388;2022-10-18T15:12:37;4.68;;;0.90;;
21546;SDS011;41275;51.912;4.388;2022-10-18T15:18:03;3.78;;;0.68;;
21546;SDS011;41275;51.912;4.388;2022-10-18T15:23:27;6.32;;;0.93;;
21546;SDS011;41275;51.912;4.388;2022-10-18T15:28:52;5.20;;;0.93;;
21546;SDS011;41275;51.912;4.388;2022-10-18T15:39:45;6.63;;;1.10;;
21546;SDS011;41275;51.912;4.388;2022-10-18T15:56:29;9.18;;;1.95;;
21546;SDS011;41275;51.912;4.388;2022-10-18T16:01:55;7.43;;;2.15;;
21546;SDS011;41275;51.912;4.388;2022-10-18T16:07:16;5.43;;;1.10;;
21546;SDS011;41275;51.912;4.388;2022-10-18T16:12:38;5.97;;;1.00;;
21546;SDS011;41275;51.912;4.388;2022-10-18T16:17:59;5.30;;;1.27;;
21546;SDS011;41275;51.912;4.388;2022-10-18T16:23:22;7.28;;;1.67;;
21546;SDS011;41275;51.912;4.388;2022-10-18T16:28:46;6.17;;;1.30;;
21546;SDS011;41275;51.912;4.388;2022-10-18T16:34:08;6.60;;;1.40;;
21546;SDS011;41275;51.912;4.388;2022-10-18T16:39:30;5.82;;;1.42;;
21546;SDS011;41275;51.912;4.388;2022-10-18T16:44:54;6.28;;;1.40;;
21546;SDS011;41275;51.912;4.388;2022-10-18T16:50:16;7.63;;;1.75;;
21546;SDS011;41275;51.912;4.388;2022-10-18T16:55:39;9.68;;;1.60;;
21546;SDS011;41275;51.912;4.388;2022-10-18T17:01:01;5.03;;;1.23;;
21546;SDS011;41275;51.912;4.388;2022-10-18T17:06:24;9.93;;;1.92;;
21546;SDS011;41275;51.912;4.388;2022-10-18T17:11:46;6.57;;;1.27;;
21546;SDS011;41275;51.912;4.388;2022-10-18T17:17:11;9.07;;;1.70;;
21546;SDS011;41275;51.912;4.388;2022-10-18T17:22:32;7.70;;;1.58;;
21546;SDS011;41275;51.912;4.388;2022-10-18T17:27:54;6.78;;;1.63;;
21546;SDS011;41275;51.912;4.388;2022-10-18T17:33:15;12.35;;;1.80;;
21546;SDS011;41275;51.912;4.388;2022-10-18T17:38:36;5.87;;;1.67;;
21546;SDS011;41275;51.912;4.388;2022-10-18T17:44:01;8.52;;;2.15;;
21546;SDS011;41275;51.912;4.388;2022-10-18T17:49:24;11.70;;;2.13;;
21546;SDS011;41275;51.912;4.388;2022-10-18T17:54:45;9.30;;;2.13;;
21546;SDS011;41275;51.912;4.388;2022-10-18T18:00:08;9.13;;;2.00;;
21546;SDS011;41275;51.912;4.388;2022-10-18T18:05:32;10.27;;;3.13;;
21546;SDS011;41275;51.912;4.388;2022-10-18T18:10:54;9.80;;;2.60;;
21546;SDS011;41275;51.912;4.388;2022-10-18T18:16:17;10.73;;;2.75;;
21546;SDS011;41275;51.912;4.388;2022-10-18T18:21:42;6.97;;;1.83;;
21546;SDS011;41275;51.912;4.388;2022-10-18T18:27:03;8.88;;;2.05;;
21546;SDS011;41275;51.912;4.388;2022-10-18T18:32:24;14.90;;;2.03;;
21546;SDS011;41275;51.912;4.388;2022-10-18T18:37:48;9.87;;;2.00;;
21546;SDS011;41275;51.912;4.388;2022-10-18T18:43:10;6.63;;;2.03;;
21546;SDS011;41275;51.912;4.388;2022-10-18T18:48:32;11.50;;;2.92;;
21546;SDS011;41275;51.912;4.388;2022-10-18T18:53:54;9.43;;;1.90;;
21546;SDS011;41275;51.912;4.388;2022-10-18T18:59:15;8.75;;;1.92;;
21546;SDS011;41275;51.912;4.388;2022-10-18T19:04:37;9.50;;;2.65;;
21546;SDS011;41275;51.912;4.388;2022-10-18T19:10:01;9.23;;;2.05;;
21546;SDS011;41275;51.912;4.388;2022-10-18T19:15:22;7.13;;;2.70;;
21546;SDS011;41275;51.912;4.388;2022-10-18T19:20:43;8.52;;;2.40;;
21546;SDS011;41275;51.912;4.388;2022-10-18T19:26:08;9.67;;;2.63;;
21546;SDS011;41275;51.912;4.388;2022-10-18T19:31:34;11.07;;;3.58;;
21546;SDS011;41275;51.912;4.388;2022-10-18T19:36:55;9.85;;;2.78;;
21546;SDS011;41275;51.912;4.388;2022-10-18T21:25:50;11.40;;;3.27;;
21546;SDS011;41275;51.912;4.388;2022-10-18T21:31:13;10.65;;;3.20;;
21546;SDS011;41275;51.912;4.388;2022-10-18T21:36:37;12.00;;;3.00;;
21546;SDS011;41275;51.912;4.388;2022-10-18T21:41:59;12.52;;;3.38;;
21546;SDS011;41275;51.912;4.388;2022-10-18T21:47:20;9.65;;;2.83;;
21546;SDS011;41275;51.912;4.388;2022-10-18T21:52:41;10.30;;;2.78;;
21546;SDS011;41275;51.912;4.388;2022-10-18T21:58:02;10.77;;;3.13;;
21546;SDS011;41275;51.912;4.388;2022-10-18T22:03:24;12.30;;;3.10;;
21546;SDS011;41275;51.912;4.388;2022-10-18T22:08:52;14.07;;;3.27;;
21546;SDS011;41275;51.912;4.388;2022-10-18T22:14:15;10.68;;;3.15;;
21546;SDS011;41275;51.912;4.388;2022-10-18T22:19:37;10.82;;;2.97;;
21546;SDS011;41275;51.912;4.388;2022-10-18T22:24:58;13.10;;;3.47;;
21546;SDS011;41275;51.912;4.388;2022-10-18T22:30:19;12.53;;;3.20;;
21546;SDS011;41275;51.912;4.388;2022-10-18T22:35:40;15.30;;;3.42;;
21546;SDS011;41275;51.912;4.388;2022-10-18T22:41:04;11.65;;;3.40;;
21546;SDS011;41275;51.912;4.388;2022-10-18T22:46:30;10.87;;;3.10;;
21546;SDS011;41275;51.912;4.388;2022-10-18T22:51:51;14.18;;;3.42;;
21546;SDS011;41275;51.912;4.388;2022-10-18T22:57:12;11.03;;;3.00;;
21546;SDS011;41275;51.912;4.388;2022-10-18T23:02:33;9.23;;;3.10;;
21546;SDS011;41275;51.912;4.388;2022-10-18T23:07:55;12.15;;;3.25;;
21546;SDS011;41275;51.912;4.388;2022-10-18T23:13:16;9.48;;;3.85;;
21546;SDS011;41275;51.912;4.388;2022-10-18T23:18:37;12.65;;;3.72;;
21546;SDS011;41275;51.912;4.388;2022-10-18T23:23:58;9.67;;;3.27;;
21546;SDS011;41275;51.912;4.388;2022-10-18T23:29:20;8.32;;;3.53;;
21546;SDS011;41275;51.912;4.388;2022-10-18T23:34:41;9.98;;;3.70;;
21546;SDS011;41275;51.912;4.388;2022-10-18T23:40:02;12.15;;;4.13;;
21546;SDS011;41275;51.912;4.388;2022-10-18T23:45:23;12.88;;;3.85;;
21546;SDS011;41275;51.912;4.388;2022-10-18T23:50:45;10.60;;;3.83;;
21546;SDS011;41275;51.912;4.388;2022-10-18T23:56:07;12.55;;;4.18;;
